createdAt,value
2019-02-19T00:01:33.215Z,993.56
2019-02-19T00:03:32.898Z,993.58
2019-02-19T00:05:33.117Z,993.32
2019-02-19T00:07:33.132Z,993.52
2019-02-19T00:09:33.138Z,993.46
2019-02-19T00:11:33.357Z,993.32
2019-02-19T00:13:32.954Z,993.19
2019-02-19T00:15:32.966Z,993.42
2019-02-19T00:17:33.183Z,993.40
2019-02-19T00:19:32.989Z,993.52
2019-02-19T00:21:33.620Z,993.58
2019-02-19T00:23:32.971Z,993.25
2019-02-19T00:25:33.036Z,993.48
2019-02-19T00:27:33.041Z,993.10
2019-02-19T00:29:33.211Z,993.22
2019-02-19T00:31:33.058Z,993.29
2019-02-19T00:33:33.078Z,993.45
2019-02-19T00:35:32.874Z,993.45
2019-02-19T00:37:33.091Z,993.56
2019-02-19T00:39:32.898Z,993.24
2019-02-19T00:41:33.123Z,993.45
2019-02-19T00:43:32.927Z,993.72
2019-02-19T00:45:33.150Z,993.38
2019-02-19T00:47:32.992Z,993.43
2019-02-19T00:49:33.069Z,993.65
2019-02-19T00:51:32.974Z,993.17
2019-02-19T00:53:33.069Z,993.28
2019-02-19T00:55:33.204Z,993.74
2019-02-19T00:57:33.216Z,993.45
2019-02-19T00:59:32.994Z,993.42
2019-02-19T01:01:32.970Z,993.47
2019-02-19T01:03:33.151Z,993.53
2019-02-19T01:05:33.259Z,993.36
2019-02-19T01:07:33.266Z,993.65
2019-02-19T01:09:33.285Z,993.60
2019-02-19T01:11:32.880Z,993.48
2019-02-19T01:13:32.897Z,993.43
2019-02-19T01:15:33.113Z,993.77
2019-02-19T01:17:33.124Z,993.35
2019-02-19T01:19:32.933Z,993.67
2019-02-19T01:21:33.080Z,993.36
2019-02-19T01:23:33.035Z,993.57
2019-02-19T01:25:33.109Z,993.52
2019-02-19T01:27:33.044Z,993.68
2019-02-19T01:29:32.990Z,993.79
2019-02-19T01:31:33.148Z,993.58
2019-02-19T01:33:32.950Z,993.28
2019-02-19T01:35:33.002Z,993.58
2019-02-19T01:37:33.030Z,993.41
2019-02-19T01:39:33.230Z,993.24
2019-02-19T01:41:33.192Z,993.21
2019-02-19T01:43:33.068Z,993.67
2019-02-19T01:45:34.312Z,993.32
2019-02-19T01:47:33.298Z,993.58
2019-02-19T01:49:33.101Z,993.62
2019-02-19T01:51:33.122Z,993.50
2019-02-19T01:53:33.081Z,993.49
2019-02-19T01:55:32.887Z,993.78
2019-02-19T01:57:32.950Z,993.47
2019-02-19T01:59:33.569Z,993.58
2019-02-19T02:01:32.974Z,993.36
2019-02-19T02:03:32.975Z,993.28
2019-02-19T02:05:33.206Z,993.11
2019-02-19T02:07:33.129Z,993.51
2019-02-19T02:09:33.019Z,993.45
2019-02-19T02:11:33.080Z,993.80
2019-02-19T02:13:33.191Z,993.55
2019-02-19T02:15:33.058Z,993.31
2019-02-19T02:17:33.048Z,993.56
2019-02-19T02:19:33.034Z,993.44
2019-02-19T02:21:33.095Z,993.08
2019-02-19T02:23:33.073Z,993.33
2019-02-19T02:25:33.227Z,993.83
2019-02-19T02:27:33.120Z,993.60
2019-02-19T02:29:33.077Z,993.28
2019-02-19T02:31:33.144Z,992.94
2019-02-19T02:33:33.155Z,993.19
2019-02-19T02:35:32.965Z,993.08
2019-02-19T02:37:32.918Z,993.22
2019-02-19T02:39:32.984Z,993.44
2019-02-19T02:41:33.607Z,993.04
2019-02-19T02:43:33.018Z,993.04
2019-02-19T02:45:32.963Z,993.00
2019-02-19T02:47:33.185Z,993.26
2019-02-19T02:49:33.245Z,992.90
2019-02-19T02:51:33.257Z,993.45
2019-02-19T02:53:33.197Z,993.37
2019-02-19T02:55:32.986Z,992.79
2019-02-19T02:57:33.091Z,993.07
2019-02-19T02:59:33.106Z,993.05
2019-02-19T03:01:33.314Z,992.76
2019-02-19T03:03:33.693Z,993.03
2019-02-19T03:05:32.905Z,993.25
2019-02-19T03:07:33.151Z,993.05
2019-02-19T03:09:33.356Z,993.23
2019-02-19T03:11:33.120Z,992.95
2019-02-19T03:13:33.364Z,992.84
2019-02-19T03:15:33.091Z,993.33
2019-02-19T03:17:32.997Z,993.42
2019-02-19T03:19:33.218Z,993.23
2019-02-19T03:21:33.145Z,993.23
2019-02-19T03:23:33.240Z,993.22
2019-02-19T03:25:32.994Z,992.91
2019-02-19T03:27:33.260Z,993.15
2019-02-19T03:29:33.071Z,993.22
2019-02-19T03:31:33.272Z,993.30
2019-02-19T03:33:33.309Z,993.11
2019-02-19T03:35:33.244Z,993.58
2019-02-19T03:37:33.518Z,993.31
2019-02-19T03:39:33.329Z,993.36
2019-02-19T03:41:33.080Z,992.97
2019-02-19T03:43:33.083Z,993.31
2019-02-19T03:45:32.962Z,993.11
2019-02-19T03:47:33.155Z,993.07
2019-02-19T03:49:33.362Z,993.16
2019-02-19T03:51:33.048Z,993.34
2019-02-19T03:53:33.022Z,993.37
2019-02-19T03:55:33.024Z,993.04
2019-02-19T03:57:33.437Z,993.07
2019-02-19T03:59:33.192Z,993.17
2019-02-19T04:01:33.215Z,993.02
2019-02-19T04:03:33.062Z,993.04
2019-02-19T04:05:33.070Z,993.35
2019-02-19T04:07:33.300Z,993.24
2019-02-19T04:09:33.298Z,993.44
2019-02-19T04:11:33.322Z,993.24
2019-02-19T04:13:33.326Z,993.45
2019-02-19T04:15:33.333Z,993.37
2019-02-19T04:17:33.342Z,993.49
2019-02-19T04:19:33.356Z,992.99
2019-02-19T04:21:33.163Z,993.09
2019-02-19T04:23:33.110Z,993.25
2019-02-19T04:25:33.080Z,993.47
2019-02-19T04:27:33.007Z,993.58
2019-02-19T04:29:33.418Z,993.34
2019-02-19T04:31:33.140Z,993.78
2019-02-19T04:33:33.243Z,993.24
2019-02-19T04:35:33.204Z,993.26
2019-02-19T04:37:33.262Z,993.28
2019-02-19T04:39:33.265Z,993.69
2019-02-19T04:41:33.280Z,993.23
2019-02-19T04:43:33.289Z,993.28
2019-02-19T04:45:33.305Z,993.44
2019-02-19T04:47:33.527Z,993.63
2019-02-19T04:49:33.127Z,993.70
2019-02-19T04:51:33.338Z,993.41
2019-02-19T04:53:33.325Z,993.61
2019-02-19T04:55:33.364Z,993.34
2019-02-19T04:57:33.376Z,993.57
2019-02-19T04:59:33.384Z,993.46
2019-02-19T05:01:32.973Z,993.63
2019-02-19T05:03:32.965Z,993.43
2019-02-19T05:05:33.420Z,993.87
2019-02-19T05:07:33.192Z,993.41
2019-02-19T05:09:33.226Z,993.54
2019-02-19T05:11:33.198Z,993.70
2019-02-19T05:13:33.204Z,993.27
2019-02-19T05:15:33.004Z,993.59
2019-02-19T05:17:33.280Z,993.66
2019-02-19T05:19:33.251Z,993.38
2019-02-19T05:21:33.099Z,992.96
2019-02-19T05:23:33.525Z,993.72
2019-02-19T05:25:33.271Z,993.62
2019-02-19T05:27:33.341Z,993.81
2019-02-19T05:29:33.288Z,993.54
2019-02-19T05:31:33.281Z,993.83
2019-02-19T05:33:33.557Z,993.76
2019-02-19T05:35:33.600Z,993.94
2019-02-19T05:37:33.400Z,993.49
2019-02-19T05:39:33.205Z,993.48
2019-02-19T05:41:33.401Z,993.57
2019-02-19T05:43:33.200Z,993.53
2019-02-19T05:45:33.247Z,993.32
2019-02-19T05:47:33.257Z,993.43
2019-02-19T05:49:33.001Z,993.88
2019-02-19T05:51:33.065Z,993.41
2019-02-19T05:53:33.292Z,993.67
2019-02-19T05:55:33.306Z,993.32
2019-02-19T05:57:33.092Z,993.71
2019-02-19T05:59:33.527Z,993.50
2019-02-19T06:01:33.295Z,993.60
2019-02-19T06:03:33.349Z,993.98
2019-02-19T06:05:33.155Z,993.85
2019-02-19T06:07:33.159Z,993.72
2019-02-19T06:09:33.587Z,993.86
2019-02-19T06:11:33.391Z,993.85
2019-02-19T06:13:33.122Z,993.39
2019-02-19T06:15:33.202Z,993.81
2019-02-19T06:17:33.419Z,993.52
2019-02-19T06:19:33.389Z,993.65
2019-02-19T06:21:33.035Z,993.73
2019-02-19T06:23:33.254Z,993.83
2019-02-19T06:25:33.217Z,994.15
2019-02-19T06:27:33.273Z,994.00
2019-02-19T06:29:33.224Z,994.00
2019-02-19T06:31:33.034Z,994.01
2019-02-19T06:33:33.269Z,993.82
2019-02-19T06:35:33.332Z,993.81
2019-02-19T06:37:33.332Z,994.32
2019-02-19T06:39:33.347Z,994.39
2019-02-19T06:41:33.153Z,993.86
2019-02-19T06:43:33.298Z,994.24
2019-02-19T06:45:33.587Z,994.22
2019-02-19T06:47:33.598Z,994.27
2019-02-19T06:49:33.331Z,994.31
2019-02-19T06:51:33.374Z,994.01
2019-02-19T06:53:33.194Z,994.39
2019-02-19T06:55:33.038Z,994.17
2019-02-19T06:57:33.046Z,994.41
2019-02-19T06:59:33.462Z,994.45
2019-02-19T07:01:33.073Z,994.60
2019-02-19T07:03:33.232Z,994.56
2019-02-19T07:05:33.500Z,994.51
2019-02-19T07:07:33.307Z,994.56
2019-02-19T07:09:33.050Z,994.56
2019-02-19T07:11:33.307Z,994.45
2019-02-19T07:13:33.131Z,994.48
2019-02-19T07:15:33.961Z,994.65
2019-02-19T07:17:33.349Z,994.46
2019-02-19T07:19:33.340Z,994.50
2019-02-19T07:21:32.989Z,994.13
2019-02-19T07:23:33.369Z,994.51
2019-02-19T07:25:34.550Z,994.65
2019-02-19T07:27:32.966Z,994.70
2019-02-19T07:29:34.662Z,994.28
2019-02-19T07:31:33.033Z,994.45
2019-02-19T07:33:33.200Z,994.67
2019-02-19T07:35:36.086Z,994.81
2019-02-19T07:37:33.274Z,994.83
2019-02-19T07:39:33.236Z,994.61
2019-02-19T07:41:33.917Z,994.96
2019-02-19T07:43:33.312Z,994.91
2019-02-19T07:45:33.286Z,994.92
2019-02-19T07:47:33.335Z,994.84
2019-02-19T07:49:33.347Z,995.10
2019-02-19T07:51:33.159Z,994.71
2019-02-19T07:53:33.343Z,995.23
2019-02-19T07:55:33.341Z,995.21
2019-02-19T07:57:33.356Z,994.81
2019-02-19T07:59:33.402Z,995.16
2019-02-19T08:01:32.963Z,995.09
2019-02-19T08:03:33.012Z,995.11
2019-02-19T08:05:33.227Z,995.03
2019-02-19T08:07:33.279Z,994.77
2019-02-19T08:09:32.998Z,995.09
2019-02-19T08:11:33.675Z,995.32
2019-02-19T08:13:33.042Z,994.93
2019-02-19T08:15:33.295Z,995.01
2019-02-19T08:17:33.717Z,995.26
2019-02-19T08:19:33.051Z,995.25
2019-02-19T08:21:33.494Z,995.22
2019-02-19T08:23:33.337Z,995.23
2019-02-19T08:25:33.148Z,995.36
2019-02-19T08:27:33.155Z,995.60
2019-02-19T08:29:33.377Z,995.64
2019-02-19T08:31:33.091Z,995.72
2019-02-19T08:33:33.884Z,995.83
2019-02-19T08:35:33.199Z,995.46
2019-02-19T08:37:33.379Z,995.46
2019-02-19T08:39:33.420Z,995.63
2019-02-19T08:41:33.640Z,995.14
2019-02-19T08:43:33.451Z,995.65
2019-02-19T08:45:33.212Z,995.48
2019-02-19T08:47:41.997Z,995.52
2019-02-19T08:49:33.280Z,995.50
2019-02-19T08:51:33.501Z,995.63
2019-02-19T08:53:33.278Z,995.63
2019-02-19T08:55:34.815Z,995.84
2019-02-19T08:57:33.327Z,995.97
2019-02-19T08:59:33.330Z,995.81
2019-02-19T09:01:33.101Z,995.56
2019-02-19T09:03:33.358Z,995.64
2019-02-19T09:05:33.373Z,995.91
2019-02-19T09:07:33.583Z,995.46
2019-02-19T09:09:33.394Z,995.68
2019-02-19T09:11:33.561Z,995.64
2019-02-19T09:13:33.159Z,995.75
2019-02-19T09:15:33.432Z,995.73
2019-02-19T09:17:33.646Z,995.74
2019-02-19T09:19:33.464Z,995.60
2019-02-19T09:21:33.278Z,996.08
2019-02-19T09:23:33.695Z,995.56
2019-02-19T09:25:33.249Z,996.14
2019-02-19T09:27:33.254Z,995.79
2019-02-19T09:29:33.305Z,995.58
2019-02-19T09:31:33.617Z,996.04
2019-02-19T09:33:33.739Z,995.78
2019-02-19T09:35:33.275Z,996.03
2019-02-19T09:37:33.085Z,995.89
2019-02-19T09:39:33.172Z,995.97
2019-02-19T09:41:33.367Z,995.78
2019-02-19T09:43:35.564Z,996.12
2019-02-19T09:45:33.389Z,995.79
2019-02-19T09:47:33.169Z,995.53
2019-02-19T09:49:33.223Z,995.47
2019-02-19T09:51:33.152Z,995.90
2019-02-19T09:53:33.417Z,995.82
2019-02-19T09:55:33.250Z,996.18
2019-02-19T09:57:33.247Z,995.85
2019-02-19T09:59:33.261Z,995.96
2019-02-19T10:01:33.439Z,995.73
2019-02-19T10:03:33.299Z,996.25
2019-02-19T10:05:33.473Z,995.89
2019-02-19T10:07:33.519Z,995.87
2019-02-19T10:09:33.355Z,996.19
2019-02-19T10:11:33.518Z,996.03
2019-02-19T10:13:33.565Z,995.95
2019-02-19T10:15:33.371Z,996.29
2019-02-19T10:17:34.973Z,996.12
2019-02-19T10:19:33.494Z,996.12
2019-02-19T10:21:33.195Z,995.96
2019-02-19T10:23:33.638Z,996.13
2019-02-19T10:25:33.221Z,995.92
2019-02-19T10:27:33.163Z,995.95
2019-02-19T10:29:33.652Z,995.89
2019-02-19T10:31:33.410Z,996.63
2019-02-19T10:33:33.216Z,995.94
2019-02-19T10:35:33.261Z,996.53
2019-02-19T10:37:33.423Z,996.24
2019-02-19T10:39:33.499Z,996.14
2019-02-19T10:41:33.717Z,996.02
2019-02-19T10:43:33.498Z,996.47
2019-02-19T10:45:33.304Z,996.47
2019-02-19T10:47:33.555Z,996.35
2019-02-19T10:49:33.565Z,996.19
2019-02-19T10:51:33.577Z,996.00
2019-02-19T10:53:33.794Z,996.19
2019-02-19T10:55:33.592Z,996.77
2019-02-19T10:57:33.620Z,996.42
2019-02-19T10:59:33.581Z,995.94
2019-02-19T11:01:33.917Z,996.27
2019-02-19T11:03:33.416Z,996.04
2019-02-19T11:05:34.076Z,996.19
2019-02-19T11:07:33.264Z,996.39
2019-02-19T11:09:33.267Z,996.32
2019-02-19T11:11:33.493Z,995.89
2019-02-19T11:13:33.295Z,996.09
2019-02-19T11:15:33.467Z,996.00
2019-02-19T11:17:33.479Z,996.26
2019-02-19T11:19:33.477Z,996.10
2019-02-19T11:21:33.333Z,996.09
2019-02-19T11:23:33.819Z,996.06
2019-02-19T11:25:33.328Z,995.89
2019-02-19T11:27:33.572Z,996.25
2019-02-19T11:29:33.812Z,995.71
2019-02-19T11:31:33.354Z,996.11
2019-02-19T11:33:33.407Z,995.86
2019-02-19T11:35:33.632Z,995.86
2019-02-19T11:37:33.426Z,996.14
2019-02-19T11:39:33.647Z,996.09
2019-02-19T11:41:33.872Z,995.94
2019-02-19T11:43:33.874Z,996.07
2019-02-19T11:45:33.273Z,996.02
2019-02-19T11:47:33.669Z,995.96
2019-02-19T11:49:33.509Z,995.96
2019-02-19T11:51:33.919Z,995.83
2019-02-19T11:53:33.525Z,996.04
2019-02-19T11:55:33.499Z,996.04
2019-02-19T11:57:33.618Z,996.04
2019-02-19T11:59:33.537Z,996.02
2019-02-19T12:01:33.565Z,996.16
2019-02-19T12:03:33.379Z,995.74
2019-02-19T12:05:33.417Z,995.89
2019-02-19T12:07:33.547Z,995.96
2019-02-19T12:09:33.331Z,996.18
2019-02-19T12:11:33.387Z,995.64
2019-02-19T12:13:33.462Z,995.60
2019-02-19T12:15:35.471Z,995.74
2019-02-19T12:17:33.405Z,996.02
2019-02-19T12:19:33.681Z,995.45
2019-02-19T12:21:33.421Z,995.84
2019-02-19T12:23:33.455Z,995.74
2019-02-19T12:25:33.249Z,995.75
2019-02-19T12:27:33.477Z,995.91
2019-02-19T12:29:33.937Z,995.90
2019-02-19T12:31:33.276Z,995.74
2019-02-19T12:33:33.518Z,995.79
2019-02-19T12:35:33.767Z,995.71
2019-02-19T12:37:33.574Z,995.74
2019-02-19T12:39:33.587Z,995.54
2019-02-19T12:41:33.800Z,995.63
2019-02-19T12:43:33.579Z,995.71
2019-02-19T12:45:33.620Z,995.55
2019-02-19T12:47:33.433Z,995.31
2019-02-19T12:49:33.443Z,995.64
2019-02-19T12:51:33.652Z,995.11
2019-02-19T12:53:33.670Z,995.67
2019-02-19T12:55:33.654Z,995.40
2019-02-19T12:57:33.712Z,995.52
2019-02-19T12:59:33.701Z,995.74
2019-02-19T13:01:33.508Z,995.32
2019-02-19T13:03:33.520Z,995.32
2019-02-19T13:05:36.177Z,995.42
2019-02-19T13:07:33.541Z,995.24
2019-02-19T13:09:33.559Z,995.31
2019-02-19T13:11:33.603Z,995.09
2019-02-19T13:13:33.374Z,995.27
2019-02-19T13:15:33.387Z,995.24
2019-02-19T13:17:33.599Z,995.65
2019-02-19T13:19:33.688Z,995.56
2019-02-19T13:21:33.718Z,995.47
2019-02-19T13:23:33.714Z,995.02
2019-02-19T13:25:33.568Z,995.26
2019-02-19T13:27:33.610Z,995.19
2019-02-19T13:29:33.443Z,995.19
2019-02-19T13:31:33.756Z,995.09
2019-02-19T13:33:33.742Z,995.29
2019-02-19T13:35:33.411Z,995.25
2019-02-19T13:37:33.585Z,995.01
2019-02-19T13:39:33.601Z,995.27
2019-02-19T13:41:33.527Z,995.15
2019-02-19T13:43:33.421Z,995.17
2019-02-19T13:45:33.383Z,995.37
2019-02-19T13:47:33.733Z,995.54
2019-02-19T13:49:33.967Z,994.83
2019-02-19T13:51:33.775Z,995.01
2019-02-19T13:53:33.763Z,995.50
2019-02-19T13:55:33.589Z,995.28
2019-02-19T13:57:33.606Z,995.43
2019-02-19T13:59:33.825Z,995.16
2019-02-19T14:01:33.733Z,995.26
2019-02-19T14:03:33.746Z,995.43
2019-02-19T14:05:33.959Z,995.27
2019-02-19T14:07:33.970Z,995.37
2019-02-19T14:09:33.568Z,995.47
2019-02-19T14:11:33.698Z,995.39
2019-02-19T14:13:33.908Z,995.63
2019-02-19T14:15:33.501Z,995.63
2019-02-19T14:17:33.519Z,995.46
2019-02-19T14:19:33.499Z,995.20
2019-02-19T14:21:33.748Z,995.47
2019-02-19T14:23:33.961Z,995.43
2019-02-19T14:25:33.689Z,995.28
2019-02-19T14:27:33.774Z,995.53
2019-02-19T14:29:33.510Z,995.56
2019-02-19T14:31:33.597Z,995.61
2019-02-19T14:33:33.505Z,995.52
2019-02-19T14:35:33.488Z,995.34
2019-02-19T14:37:33.739Z,995.55
2019-02-19T14:39:33.526Z,995.63
2019-02-19T14:41:33.754Z,995.74
2019-02-19T14:43:33.494Z,995.59
2019-02-19T14:45:33.780Z,995.48
2019-02-19T14:47:33.585Z,995.02
2019-02-19T14:49:37.300Z,995.63
2019-02-19T14:51:33.817Z,995.52
2019-02-19T14:53:33.622Z,995.45
2019-02-19T14:55:33.817Z,995.42
2019-02-19T14:57:33.847Z,995.60
2019-02-19T14:59:33.522Z,995.60
2019-02-19T15:01:33.533Z,995.83
2019-02-19T15:03:33.796Z,995.30
2019-02-19T15:05:33.550Z,995.26
2019-02-19T15:07:34.019Z,995.25
2019-02-19T15:09:33.616Z,995.25
2019-02-19T15:11:33.830Z,995.53
2019-02-19T15:13:33.852Z,995.51
2019-02-19T15:15:34.257Z,995.46
2019-02-19T15:17:33.776Z,995.59
2019-02-19T15:19:39.171Z,995.41
2019-02-19T15:21:33.787Z,995.64
2019-02-19T15:23:33.690Z,995.17
2019-02-19T15:25:33.924Z,995.80
2019-02-19T15:27:33.511Z,995.35
2019-02-19T15:29:33.673Z,995.28
2019-02-19T15:31:33.742Z,995.37
2019-02-19T15:33:33.855Z,995.50
2019-02-19T15:35:33.875Z,994.96
2019-02-19T15:37:33.888Z,995.43
2019-02-19T15:39:33.587Z,995.24
2019-02-19T15:41:33.698Z,995.38
2019-02-19T15:43:33.694Z,995.38
2019-02-19T15:45:33.725Z,995.46
2019-02-19T15:47:33.614Z,995.40
2019-02-19T15:49:33.898Z,995.51
2019-02-19T15:51:33.958Z,995.49
2019-02-19T15:53:33.767Z,995.44
2019-02-19T15:55:33.773Z,995.35
2019-02-19T15:57:33.940Z,995.70
2019-02-19T15:59:33.912Z,995.44
2019-02-19T16:01:34.083Z,995.73
2019-02-19T16:03:33.725Z,995.62
2019-02-19T16:05:33.739Z,995.56
2019-02-19T16:07:33.743Z,995.55
2019-02-19T16:09:33.770Z,995.61
2019-02-19T16:11:33.765Z,995.52
2019-02-19T16:13:35.289Z,995.30
2019-02-19T16:15:33.897Z,995.57
2019-02-19T16:17:33.905Z,995.56
2019-02-19T16:19:33.896Z,995.78
2019-02-19T16:21:33.928Z,995.64
2019-02-19T16:23:33.949Z,995.72
2019-02-19T16:25:33.748Z,995.62
2019-02-19T16:27:33.741Z,995.78
2019-02-19T16:29:33.778Z,995.28
2019-02-19T16:31:33.917Z,995.62
2019-02-19T16:33:33.794Z,995.72
2019-02-19T16:35:33.688Z,995.77
2019-02-19T16:37:33.681Z,995.72
2019-02-19T16:39:33.708Z,995.86
2019-02-19T16:41:34.562Z,995.73
2019-02-19T16:43:34.264Z,995.97
2019-02-19T16:45:33.949Z,995.69
2019-02-19T16:47:34.057Z,995.78
2019-02-19T16:49:33.805Z,995.37
2019-02-19T16:51:33.692Z,995.85
2019-02-19T16:53:33.919Z,995.92
2019-02-19T16:55:33.928Z,995.75
2019-02-19T16:57:33.678Z,995.92
2019-02-19T16:59:33.844Z,995.80
2019-02-19T17:01:33.958Z,995.43
2019-02-19T17:03:34.293Z,995.80
2019-02-19T17:05:34.189Z,995.75
2019-02-19T17:07:34.326Z,995.70
2019-02-19T17:09:33.768Z,995.92
2019-02-19T17:11:34.227Z,995.96
2019-02-19T17:13:33.904Z,995.85
2019-02-19T17:15:33.945Z,996.01
2019-02-19T17:17:33.742Z,996.39
2019-02-19T17:19:33.761Z,996.31
2019-02-19T17:21:33.774Z,996.03
2019-02-19T17:23:33.986Z,996.16
2019-02-19T17:25:33.924Z,996.09
2019-02-19T17:27:33.950Z,996.09
2019-02-19T17:29:33.811Z,995.94
2019-02-19T17:31:34.052Z,996.00
2019-02-19T17:33:33.977Z,996.27
2019-02-19T17:35:34.369Z,996.40
2019-02-19T17:37:33.948Z,996.53
2019-02-19T17:39:34.182Z,996.35
2019-02-19T17:41:34.398Z,996.37
2019-02-19T17:43:33.992Z,996.08
2019-02-19T17:45:33.928Z,996.36
2019-02-19T17:47:33.838Z,996.37
2019-02-19T17:49:34.137Z,996.21
2019-02-19T17:51:34.357Z,996.48
2019-02-19T17:53:34.411Z,996.29
2019-02-19T17:55:34.063Z,996.31
2019-02-19T17:57:33.869Z,996.44
2019-02-19T17:59:34.116Z,996.42
2019-02-19T18:01:34.616Z,996.59
2019-02-19T18:03:34.424Z,996.53
2019-02-19T18:05:33.684Z,996.43
2019-02-19T18:07:34.445Z,996.46
2019-02-19T18:09:34.253Z,996.52
2019-02-19T18:11:34.264Z,996.38
2019-02-19T18:13:34.276Z,996.50
2019-02-19T18:15:34.179Z,996.43
2019-02-19T18:17:34.081Z,996.21
2019-02-19T18:19:34.053Z,996.58
2019-02-19T18:21:34.169Z,996.65
2019-02-19T18:23:34.233Z,996.51
2019-02-19T18:25:34.452Z,996.54
2019-02-19T18:27:34.463Z,996.20
2019-02-19T18:29:34.590Z,996.44
2019-02-19T18:31:34.280Z,996.57
2019-02-19T18:33:34.035Z,996.82
2019-02-19T18:35:34.078Z,996.83
2019-02-19T18:37:34.307Z,996.92
2019-02-19T18:39:34.214Z,996.81
2019-02-19T18:41:34.116Z,996.76
2019-02-19T18:43:34.300Z,996.83
2019-02-19T18:45:34.148Z,996.62
2019-02-19T18:47:36.833Z,996.71
2019-02-19T18:49:34.300Z,996.69
2019-02-19T18:51:34.192Z,996.63
2019-02-19T18:53:34.170Z,996.71
2019-02-19T18:55:34.348Z,996.84
2019-02-19T18:57:34.427Z,996.76
2019-02-19T18:59:34.414Z,996.84
2019-02-19T19:01:34.153Z,996.68
2019-02-19T19:03:34.466Z,996.94
2019-02-19T19:05:34.473Z,997.05
2019-02-19T19:07:34.380Z,996.79
2019-02-19T19:09:34.191Z,996.66
2019-02-19T19:11:34.202Z,996.81
2019-02-19T19:13:34.429Z,996.82
2019-02-19T19:15:34.214Z,997.15
2019-02-19T19:17:35.229Z,996.80
2019-02-19T19:19:34.244Z,996.91
2019-02-19T19:21:35.454Z,997.13
2019-02-19T19:23:34.484Z,996.97
2019-02-19T19:25:34.488Z,997.14
2019-02-19T19:27:34.254Z,996.84
2019-02-19T19:29:34.202Z,997.21
2019-02-19T19:31:34.190Z,997.03
2019-02-19T19:33:34.428Z,997.16
2019-02-19T19:35:34.211Z,997.23
2019-02-19T19:37:34.090Z,997.27
2019-02-19T19:39:34.126Z,997.04
2019-02-19T19:43:34.384Z,997.15
2019-02-19T19:45:34.315Z,997.30
2019-02-19T19:47:34.513Z,997.20
2019-02-19T19:49:34.525Z,997.28
2019-02-19T19:51:34.436Z,997.28
2019-02-19T19:53:34.258Z,997.35
2019-02-19T19:55:34.479Z,997.27
2019-02-19T19:57:34.332Z,997.17
2019-02-19T19:59:34.586Z,997.28
2019-02-19T20:01:34.503Z,997.60
2019-02-19T20:03:34.401Z,997.47
2019-02-19T20:05:34.176Z,997.14
2019-02-19T20:07:34.531Z,997.49
2019-02-19T20:09:34.229Z,997.19
2019-02-19T20:11:34.455Z,997.15
2019-02-19T20:13:34.459Z,997.29
2019-02-19T20:15:34.368Z,997.28
2019-02-19T20:17:34.789Z,997.37
2019-02-19T20:19:33.792Z,997.35
2019-02-19T20:21:34.278Z,997.30
2019-02-19T20:23:34.338Z,997.41
2019-02-19T20:25:34.459Z,997.47
2019-02-19T20:27:34.236Z,996.99
2019-02-19T20:29:34.395Z,997.22
2019-02-19T20:31:34.667Z,997.59
2019-02-19T20:33:34.273Z,997.41
2019-02-19T20:35:34.252Z,997.40
2019-02-19T20:37:34.493Z,997.66
2019-02-19T20:39:34.503Z,997.51
2019-02-19T20:41:34.939Z,997.70
2019-02-19T20:43:34.072Z,997.54
2019-02-19T20:45:34.273Z,997.26
2019-02-19T20:47:34.552Z,997.42
2019-02-19T20:49:33.954Z,997.50
2019-02-19T20:51:36.430Z,997.49
2019-02-19T20:53:34.089Z,997.55
2019-02-19T20:55:36.877Z,997.89
2019-02-19T20:57:33.814Z,997.56
2019-02-19T20:59:34.082Z,997.19
2019-02-19T21:01:34.087Z,997.72
2019-02-19T21:03:33.933Z,997.66
2019-02-19T21:05:34.010Z,997.62
2019-02-19T21:07:34.259Z,997.80
2019-02-19T21:09:43.111Z,997.71
2019-02-19T21:11:34.135Z,997.49
2019-02-19T21:13:34.195Z,997.97
2019-02-19T21:15:34.073Z,997.72
2019-02-19T21:17:34.626Z,997.54
2019-02-19T21:19:34.223Z,997.85
2019-02-19T21:21:33.828Z,997.46
2019-02-19T21:23:33.991Z,998.02
2019-02-19T21:25:33.978Z,997.87
2019-02-19T21:27:34.068Z,997.88
2019-02-19T21:29:34.084Z,997.95
2019-02-19T21:31:34.021Z,997.78
2019-02-19T21:33:33.901Z,997.84
2019-02-19T21:35:34.170Z,997.73
2019-02-19T21:37:34.127Z,997.88
2019-02-19T21:39:34.345Z,997.72
2019-02-19T21:41:33.948Z,997.91
2019-02-19T21:43:33.960Z,997.63
2019-02-19T21:45:33.872Z,997.89
2019-02-19T21:47:34.181Z,997.62
2019-02-19T21:49:34.201Z,997.80
2019-02-19T21:51:33.966Z,997.75
2019-02-19T21:53:34.018Z,997.75
2019-02-19T21:55:34.171Z,998.11
2019-02-19T21:57:34.250Z,997.95
2019-02-19T21:59:34.252Z,997.94
2019-02-19T22:01:34.235Z,997.92
2019-02-19T22:03:34.281Z,997.68
2019-02-19T22:05:33.878Z,997.87
2019-02-19T22:07:34.091Z,997.90
2019-02-19T22:09:33.904Z,997.75
2019-02-19T22:11:34.052Z,998.14
2019-02-19T22:13:34.301Z,997.69
2019-02-19T22:15:34.149Z,998.08
2019-02-19T22:17:33.979Z,997.81
2019-02-19T22:19:33.956Z,997.78
2019-02-19T22:21:34.182Z,998.06
2019-02-19T22:23:34.115Z,997.95
2019-02-19T22:25:33.926Z,997.93
2019-02-19T22:27:33.848Z,998.06
2019-02-19T22:29:34.323Z,997.77
2019-02-19T22:31:34.079Z,998.07
2019-02-19T22:33:34.386Z,998.36
2019-02-19T22:35:34.122Z,997.75
2019-02-19T22:37:34.171Z,998.02
2019-02-19T22:39:34.179Z,997.80
2019-02-19T22:41:34.573Z,997.77
2019-02-19T22:43:34.289Z,997.98
2019-02-19T22:45:34.219Z,997.72
2019-02-19T22:47:33.886Z,997.88
2019-02-19T22:49:34.147Z,997.90
2019-02-19T22:51:33.943Z,997.80
2019-02-19T22:53:34.157Z,997.94
2019-02-19T22:55:34.113Z,997.70
2019-02-19T22:57:33.982Z,997.66
2019-02-19T22:59:34.193Z,997.91
2019-02-19T23:01:33.993Z,997.85
2019-02-19T23:03:34.004Z,997.97
2019-02-19T23:05:34.433Z,997.86
2019-02-19T23:07:34.174Z,997.92
2019-02-19T23:09:33.991Z,997.97
2019-02-19T23:11:34.052Z,998.19
2019-02-19T23:13:34.194Z,998.04
2019-02-19T23:15:34.394Z,998.14
2019-02-19T23:17:34.117Z,997.76
2019-02-19T23:19:34.002Z,998.34
2019-02-19T23:21:34.222Z,998.33
2019-02-19T23:23:34.022Z,998.03
2019-02-19T23:25:34.281Z,997.74
2019-02-19T23:27:34.065Z,997.98
2019-02-19T23:29:34.156Z,998.33
2019-02-19T23:31:34.080Z,998.10
2019-02-19T23:33:33.989Z,997.89
2019-02-19T23:35:33.962Z,997.99
2019-02-19T23:37:34.020Z,997.91
2019-02-19T23:39:43.225Z,998.23
2019-02-19T23:41:34.662Z,998.23
2019-02-19T23:43:34.157Z,998.11
2019-02-19T23:45:34.477Z,997.67
2019-02-19T23:47:34.470Z,998.24
2019-02-19T23:49:34.180Z,998.35
2019-02-19T23:51:34.288Z,998.43
2019-02-19T23:53:34.247Z,998.29
2019-02-19T23:55:34.244Z,998.20
2019-02-19T23:57:34.124Z,998.22
2019-02-19T23:59:34.395Z,997.93
